sensor_id;sensor_type;location;lat;lon;timestamp;P1;durP1;ratioP1;P2;durP2;ratioP2
7316;SDS011;3699;51.462;6.696;2023-04-26T00:02:25;9.17;;;4.40;;
7316;SDS011;3699;51.462;6.696;2023-04-26T00:04:52;8.33;;;4.60;;
7316;SDS011;3699;51.462;6.696;2023-04-26T00:07:19;11.30;;;4.70;;
7316;SDS011;3699;51.462;6.696;2023-04-26T00:09:47;8.57;;;3.87;;
7316;SDS011;3699;51.462;6.696;2023-04-26T00:12:13;7.47;;;4.33;;
7316;SDS011;3699;51.462;6.696;2023-04-26T00:14:42;8.70;;;4.40;;
7316;SDS011;3699;51.462;6.696;2023-04-26T00:17:08;9.90;;;4.70;;
7316;SDS011;3699;51.462;6.696;2023-04-26T00:19:35;8.10;;;4.57;;
7316;SDS011;3699;51.462;6.696;2023-04-26T00:22:02;10.53;;;4.63;;
7316;SDS011;3699;51.462;6.696;2023-04-26T00:24:29;7.67;;;4.47;;
7316;SDS011;3699;51.462;6.696;2023-04-26T00:26:56;8.00;;;4.63;;
7316;SDS011;3699;51.462;6.696;2023-04-26T00:29:23;7.27;;;4.63;;
7316;SDS011;3699;51.462;6.696;2023-04-26T00:31:51;10.23;;;5.10;;
7316;SDS011;3699;51.462;6.696;2023-04-26T00:34:17;12.33;;;5.10;;
7316;SDS011;3699;51.462;6.696;2023-04-26T00:36:44;18.47;;;9.23;;
7316;SDS011;3699;51.462;6.696;2023-04-26T00:39:11;10.00;;;4.80;;
7316;SDS011;3699;51.462;6.696;2023-04-26T00:41:38;10.53;;;4.73;;
7316;SDS011;3699;51.462;6.696;2023-04-26T00:44:04;12.13;;;5.93;;
7316;SDS011;3699;51.462;6.696;2023-04-26T00:46:31;9.90;;;4.97;;
7316;SDS011;3699;51.462;6.696;2023-04-26T00:48:59;10.63;;;5.03;;
7316;SDS011;3699;51.462;6.696;2023-04-26T00:51:26;8.13;;;4.83;;
7316;SDS011;3699;51.462;6.696;2023-04-26T00:53:53;7.10;;;4.83;;
7316;SDS011;3699;51.462;6.696;2023-04-26T00:56:20;8.03;;;5.87;;
7316;SDS011;3699;51.462;6.696;2023-04-26T00:58:48;11.13;;;5.83;;
7316;SDS011;3699;51.462;6.696;2023-04-26T01:01:15;9.70;;;5.80;;
7316;SDS011;3699;51.462;6.696;2023-04-26T01:03:41;9.07;;;6.43;;
7316;SDS011;3699;51.462;6.696;2023-04-26T01:06:12;12.83;;;5.57;;
7316;SDS011;3699;51.462;6.696;2023-04-26T01:08:38;10.43;;;6.20;;
7316;SDS011;3699;51.462;6.696;2023-04-26T01:11:05;8.13;;;5.10;;
7316;SDS011;3699;51.462;6.696;2023-04-26T01:13:32;10.40;;;4.73;;
7316;SDS011;3699;51.462;6.696;2023-04-26T01:16:01;22.53;;;5.50;;
7316;SDS011;3699;51.462;6.696;2023-04-26T01:18:28;10.53;;;5.70;;
7316;SDS011;3699;51.462;6.696;2023-04-26T01:20:55;9.13;;;4.87;;
7316;SDS011;3699;51.462;6.696;2023-04-26T01:23:24;7.73;;;5.30;;
7316;SDS011;3699;51.462;6.696;2023-04-26T01:25:51;9.60;;;5.97;;
7316;SDS011;3699;51.462;6.696;2023-04-26T01:28:20;15.43;;;5.77;;
7316;SDS011;3699;51.462;6.696;2023-04-26T01:30:46;6.47;;;4.63;;
7316;SDS011;3699;51.462;6.696;2023-04-26T01:33:13;14.10;;;6.10;;
7316;SDS011;3699;51.462;6.696;2023-04-26T01:35:40;15.63;;;5.07;;
7316;SDS011;3699;51.462;6.696;2023-04-26T01:38:07;10.93;;;5.60;;
7316;SDS011;3699;51.462;6.696;2023-04-26T01:40:35;12.67;;;6.00;;
7316;SDS011;3699;51.462;6.696;2023-04-26T01:43:02;10.50;;;5.13;;
7316;SDS011;3699;51.462;6.696;2023-04-26T01:45:28;12.27;;;5.57;;
7316;SDS011;3699;51.462;6.696;2023-04-26T01:47:55;10.37;;;7.70;;
7316;SDS011;3699;51.462;6.696;2023-04-26T01:50:23;11.90;;;5.93;;
7316;SDS011;3699;51.462;6.696;2023-04-26T01:52:49;9.87;;;5.33;;
7316;SDS011;3699;51.462;6.696;2023-04-26T01:55:16;6.60;;;4.83;;
7316;SDS011;3699;51.462;6.696;2023-04-26T01:57:44;15.27;;;5.53;;
7316;SDS011;3699;51.462;6.696;2023-04-26T02:00:11;10.97;;;5.80;;
7316;SDS011;3699;51.462;6.696;2023-04-26T02:02:38;15.30;;;6.07;;
7316;SDS011;3699;51.462;6.696;2023-04-26T02:05:05;14.73;;;6.37;;
7316;SDS011;3699;51.462;6.696;2023-04-26T02:07:34;12.43;;;6.07;;
7316;SDS011;3699;51.462;6.696;2023-04-26T02:10:01;13.30;;;6.20;;
7316;SDS011;3699;51.462;6.696;2023-04-26T02:12:28;9.43;;;6.10;;
7316;SDS011;3699;51.462;6.696;2023-04-26T02:14:56;11.70;;;5.73;;
7316;SDS011;3699;51.462;6.696;2023-04-26T02:17:23;15.53;;;6.60;;
7316;SDS011;3699;51.462;6.696;2023-04-26T02:19:51;15.93;;;6.93;;
7316;SDS011;3699;51.462;6.696;2023-04-26T02:22:18;12.03;;;6.10;;
7316;SDS011;3699;51.462;6.696;2023-04-26T02:24:48;14.63;;;7.70;;
7316;SDS011;3699;51.462;6.696;2023-04-26T02:27:15;13.57;;;6.70;;
7316;SDS011;3699;51.462;6.696;2023-04-26T02:29:42;11.03;;;6.20;;
7316;SDS011;3699;51.462;6.696;2023-04-26T02:32:10;15.07;;;6.67;;
7316;SDS011;3699;51.462;6.696;2023-04-26T02:34:37;12.10;;;6.23;;
7316;SDS011;3699;51.462;6.696;2023-04-26T02:37:04;13.10;;;6.90;;
7316;SDS011;3699;51.462;6.696;2023-04-26T02:39:31;11.87;;;6.87;;
7316;SDS011;3699;51.462;6.696;2023-04-26T02:41:58;13.53;;;6.90;;
7316;SDS011;3699;51.462;6.696;2023-04-26T02:44:27;14.67;;;6.97;;
7316;SDS011;3699;51.462;6.696;2023-04-26T02:46:54;15.40;;;7.30;;
7316;SDS011;3699;51.462;6.696;2023-04-26T02:49:22;14.17;;;6.97;;
7316;SDS011;3699;51.462;6.696;2023-04-26T02:51:49;12.53;;;6.97;;
7316;SDS011;3699;51.462;6.696;2023-04-26T02:54:16;9.53;;;6.67;;
7316;SDS011;3699;51.462;6.696;2023-04-26T02:56:42;10.90;;;7.03;;
7316;SDS011;3699;51.462;6.696;2023-04-26T02:59:09;16.03;;;7.23;;
7316;SDS011;3699;51.462;6.696;2023-04-26T03:01:36;13.37;;;8.03;;
7316;SDS011;3699;51.462;6.696;2023-04-26T03:04:03;12.73;;;7.00;;
7316;SDS011;3699;51.462;6.696;2023-04-26T03:06:31;9.07;;;6.83;;
7316;SDS011;3699;51.462;6.696;2023-04-26T03:08:57;15.87;;;7.87;;
7316;SDS011;3699;51.462;6.696;2023-04-26T03:11:24;13.07;;;7.57;;
7316;SDS011;3699;51.462;6.696;2023-04-26T03:13:51;15.17;;;7.77;;
7316;SDS011;3699;51.462;6.696;2023-04-26T03:16:18;17.70;;;8.30;;
7316;SDS011;3699;51.462;6.696;2023-04-26T03:18:45;11.50;;;7.10;;
7316;SDS011;3699;51.462;6.696;2023-04-26T03:21:12;20.43;;;7.70;;
7316;SDS011;3699;51.462;6.696;2023-04-26T03:23:40;10.23;;;7.30;;
7316;SDS011;3699;51.462;6.696;2023-04-26T03:26:06;16.13;;;7.67;;
7316;SDS011;3699;51.462;6.696;2023-04-26T03:28:33;13.57;;;7.93;;
7316;SDS011;3699;51.462;6.696;2023-04-26T03:31:00;18.93;;;8.73;;
7316;SDS011;3699;51.462;6.696;2023-04-26T03:33:27;12.70;;;7.53;;
7316;SDS011;3699;51.462;6.696;2023-04-26T03:35:54;11.27;;;7.73;;
7316;SDS011;3699;51.462;6.696;2023-04-26T03:38:20;14.23;;;7.83;;
7316;SDS011;3699;51.462;6.696;2023-04-26T03:40:49;17.07;;;8.93;;
7316;SDS011;3699;51.462;6.696;2023-04-26T03:43:15;18.13;;;8.63;;
7316;SDS011;3699;51.462;6.696;2023-04-26T03:45:45;15.17;;;8.50;;
7316;SDS011;3699;51.462;6.696;2023-04-26T03:48:12;21.30;;;9.67;;
7316;SDS011;3699;51.462;6.696;2023-04-26T03:50:40;15.10;;;8.20;;
7316;SDS011;3699;51.462;6.696;2023-04-26T03:53:08;15.03;;;8.77;;
7316;SDS011;3699;51.462;6.696;2023-04-26T03:55:35;14.47;;;8.13;;
7316;SDS011;3699;51.462;6.696;2023-04-26T03:58:03;15.07;;;8.40;;
7316;SDS011;3699;51.462;6.696;2023-04-26T04:00:31;18.77;;;9.33;;
7316;SDS011;3699;51.462;6.696;2023-04-26T04:02:58;13.80;;;8.63;;
7316;SDS011;3699;51.462;6.696;2023-04-26T04:05:25;19.00;;;8.53;;
7316;SDS011;3699;51.462;6.696;2023-04-26T04:07:52;13.63;;;8.17;;
7316;SDS011;3699;51.462;6.696;2023-04-26T04:10:20;16.43;;;8.93;;
7316;SDS011;3699;51.462;6.696;2023-04-26T04:12:48;16.57;;;8.93;;
7316;SDS011;3699;51.462;6.696;2023-04-26T04:15:16;18.23;;;9.83;;
7316;SDS011;3699;51.462;6.696;2023-04-26T04:17:44;16.13;;;9.07;;
7316;SDS011;3699;51.462;6.696;2023-04-26T04:20:11;15.80;;;9.50;;
7316;SDS011;3699;51.462;6.696;2023-04-26T04:22:38;17.70;;;8.70;;
7316;SDS011;3699;51.462;6.696;2023-04-26T04:25:05;18.13;;;8.97;;
7316;SDS011;3699;51.462;6.696;2023-04-26T04:27:33;17.50;;;9.20;;
7316;SDS011;3699;51.462;6.696;2023-04-26T04:30:01;22.63;;;9.57;;
7316;SDS011;3699;51.462;6.696;2023-04-26T04:32:30;20.37;;;10.43;;
7316;SDS011;3699;51.462;6.696;2023-04-26T04:34:57;21.47;;;10.93;;
7316;SDS011;3699;51.462;6.696;2023-04-26T04:37:25;22.63;;;10.57;;
7316;SDS011;3699;51.462;6.696;2023-04-26T04:39:52;20.13;;;10.73;;
7316;SDS011;3699;51.462;6.696;2023-04-26T04:42:19;20.23;;;11.03;;
7316;SDS011;3699;51.462;6.696;2023-04-26T04:44:46;17.33;;;10.40;;
7316;SDS011;3699;51.462;6.696;2023-04-26T04:47:14;15.73;;;10.13;;
7316;SDS011;3699;51.462;6.696;2023-04-26T04:49:43;20.03;;;11.03;;
7316;SDS011;3699;51.462;6.696;2023-04-26T04:52:10;19.73;;;10.77;;
7316;SDS011;3699;51.462;6.696;2023-04-26T04:54:36;17.63;;;10.03;;
7316;SDS011;3699;51.462;6.696;2023-04-26T04:57:03;22.93;;;10.33;;
7316;SDS011;3699;51.462;6.696;2023-04-26T04:59:30;21.17;;;10.80;;
7316;SDS011;3699;51.462;6.696;2023-04-26T05:01:57;21.57;;;10.60;;
7316;SDS011;3699;51.462;6.696;2023-04-26T05:04:24;17.87;;;11.03;;
7316;SDS011;3699;51.462;6.696;2023-04-26T05:06:52;17.90;;;9.47;;
7316;SDS011;3699;51.462;6.696;2023-04-26T05:09:18;16.53;;;9.50;;
7316;SDS011;3699;51.462;6.696;2023-04-26T05:11:45;17.17;;;9.40;;
7316;SDS011;3699;51.462;6.696;2023-04-26T05:14:12;23.20;;;10.73;;
7316;SDS011;3699;51.462;6.696;2023-04-26T05:16:39;23.07;;;10.87;;
7316;SDS011;3699;51.462;6.696;2023-04-26T05:19:05;19.57;;;10.47;;
7316;SDS011;3699;51.462;6.696;2023-04-26T05:21:32;20.13;;;9.93;;
7316;SDS011;3699;51.462;6.696;2023-04-26T05:24:00;18.23;;;9.30;;
7316;SDS011;3699;51.462;6.696;2023-04-26T05:26:27;17.40;;;9.37;;
7316;SDS011;3699;51.462;6.696;2023-04-26T05:28:54;16.50;;;8.73;;
7316;SDS011;3699;51.462;6.696;2023-04-26T05:31:21;15.50;;;7.93;;
7316;SDS011;3699;51.462;6.696;2023-04-26T05:33:48;17.90;;;9.13;;
7316;SDS011;3699;51.462;6.696;2023-04-26T05:36:15;23.60;;;9.27;;
7316;SDS011;3699;51.462;6.696;2023-04-26T05:38:42;15.40;;;9.23;;
7316;SDS011;3699;51.462;6.696;2023-04-26T05:41:10;12.40;;;8.27;;
7316;SDS011;3699;51.462;6.696;2023-04-26T05:43:37;14.60;;;8.53;;
7316;SDS011;3699;51.462;6.696;2023-04-26T05:46:04;14.93;;;8.60;;
7316;SDS011;3699;51.462;6.696;2023-04-26T05:48:31;13.63;;;8.13;;
7316;SDS011;3699;51.462;6.696;2023-04-26T05:50:58;17.50;;;8.53;;
7316;SDS011;3699;51.462;6.696;2023-04-26T05:53:25;15.83;;;8.37;;
7316;SDS011;3699;51.462;6.696;2023-04-26T05:55:52;16.07;;;8.03;;
7316;SDS011;3699;51.462;6.696;2023-04-26T05:58:20;13.07;;;7.63;;
7316;SDS011;3699;51.462;6.696;2023-04-26T06:00:46;13.10;;;7.93;;
7316;SDS011;3699;51.462;6.696;2023-04-26T06:03:13;11.53;;;8.27;;
7316;SDS011;3699;51.462;6.696;2023-04-26T06:05:40;10.50;;;8.27;;
7316;SDS011;3699;51.462;6.696;2023-04-26T06:08:07;12.87;;;8.77;;
7316;SDS011;3699;51.462;6.696;2023-04-26T06:10:34;16.83;;;8.37;;
7316;SDS011;3699;51.462;6.696;2023-04-26T06:13:01;19.40;;;8.77;;
7316;SDS011;3699;51.462;6.696;2023-04-26T06:15:29;17.43;;;9.07;;
7316;SDS011;3699;51.462;6.696;2023-04-26T06:17:56;12.30;;;8.17;;
7316;SDS011;3699;51.462;6.696;2023-04-26T06:20:24;15.63;;;8.57;;
7316;SDS011;3699;51.462;6.696;2023-04-26T06:22:51;16.87;;;8.80;;
7316;SDS011;3699;51.462;6.696;2023-04-26T06:25:18;20.00;;;8.73;;
7316;SDS011;3699;51.462;6.696;2023-04-26T06:27:45;19.97;;;8.77;;
7316;SDS011;3699;51.462;6.696;2023-04-26T06:30:12;12.07;;;8.07;;
7316;SDS011;3699;51.462;6.696;2023-04-26T06:32:41;15.20;;;9.17;;
7316;SDS011;3699;51.462;6.696;2023-04-26T06:35:08;12.03;;;8.73;;
7316;SDS011;3699;51.462;6.696;2023-04-26T06:37:35;11.23;;;6.70;;
7316;SDS011;3699;51.462;6.696;2023-04-26T06:40:03;12.60;;;7.27;;
7316;SDS011;3699;51.462;6.696;2023-04-26T06:42:30;14.07;;;7.70;;
7316;SDS011;3699;51.462;6.696;2023-04-26T06:44:57;13.03;;;7.13;;
7316;SDS011;3699;51.462;6.696;2023-04-26T06:47:24;17.03;;;7.27;;
7316;SDS011;3699;51.462;6.696;2023-04-26T06:49:52;9.67;;;7.17;;
7316;SDS011;3699;51.462;6.696;2023-04-26T06:52:19;9.47;;;6.50;;
7316;SDS011;3699;51.462;6.696;2023-04-26T06:54:45;15.27;;;7.83;;
7316;SDS011;3699;51.462;6.696;2023-04-26T06:57:12;14.20;;;8.50;;
7316;SDS011;3699;51.462;6.696;2023-04-26T06:59:39;14.77;;;7.13;;
7316;SDS011;3699;51.462;6.696;2023-04-26T07:02:05;14.50;;;7.60;;
7316;SDS011;3699;51.462;6.696;2023-04-26T07:04:32;14.83;;;7.23;;
7316;SDS011;3699;51.462;6.696;2023-04-26T07:07:01;17.40;;;7.50;;
7316;SDS011;3699;51.462;6.696;2023-04-26T07:09:28;12.60;;;6.83;;
7316;SDS011;3699;51.462;6.696;2023-04-26T07:11:55;9.97;;;6.53;;
7316;SDS011;3699;51.462;6.696;2023-04-26T07:14:22;15.37;;;7.63;;
7316;SDS011;3699;51.462;6.696;2023-04-26T07:16:49;14.57;;;7.43;;
7316;SDS011;3699;51.462;6.696;2023-04-26T07:19:16;15.03;;;7.27;;
7316;SDS011;3699;51.462;6.696;2023-04-26T07:21:43;11.43;;;6.20;;
7316;SDS011;3699;51.462;6.696;2023-04-26T07:24:12;15.80;;;5.90;;
7316;SDS011;3699;51.462;6.696;2023-04-26T07:26:38;11.40;;;5.80;;
7316;SDS011;3699;51.462;6.696;2023-04-26T07:29:05;15.50;;;6.17;;
7316;SDS011;3699;51.462;6.696;2023-04-26T07:31:32;12.33;;;5.43;;
7316;SDS011;3699;51.462;6.696;2023-04-26T07:33:59;9.60;;;5.50;;
7316;SDS011;3699;51.462;6.696;2023-04-26T07:36:26;13.67;;;5.77;;
7316;SDS011;3699;51.462;6.696;2023-04-26T07:38:53;9.47;;;5.80;;
7316;SDS011;3699;51.462;6.696;2023-04-26T07:41:21;10.33;;;4.73;;
7316;SDS011;3699;51.462;6.696;2023-04-26T07:43:48;10.33;;;5.33;;
7316;SDS011;3699;51.462;6.696;2023-04-26T07:46:15;21.73;;;8.53;;
7316;SDS011;3699;51.462;6.696;2023-04-26T07:48:42;10.87;;;5.40;;
7316;SDS011;3699;51.462;6.696;2023-04-26T07:51:10;16.10;;;6.10;;
7316;SDS011;3699;51.462;6.696;2023-04-26T07:53:37;8.27;;;4.70;;
7316;SDS011;3699;51.462;6.696;2023-04-26T07:56:05;7.80;;;4.03;;
7316;SDS011;3699;51.462;6.696;2023-04-26T07:58:34;8.47;;;4.20;;
7316;SDS011;3699;51.462;6.696;2023-04-26T08:01:02;8.87;;;4.53;;
7316;SDS011;3699;51.462;6.696;2023-04-26T08:03:29;14.73;;;6.33;;
7316;SDS011;3699;51.462;6.696;2023-04-26T08:05:56;15.43;;;9.30;;
7316;SDS011;3699;51.462;6.696;2023-04-26T08:08:24;9.40;;;4.43;;
7316;SDS011;3699;51.462;6.696;2023-04-26T08:10:52;7.53;;;3.50;;
7316;SDS011;3699;51.462;6.696;2023-04-26T08:13:19;8.40;;;3.77;;
7316;SDS011;3699;51.462;6.696;2023-04-26T08:15:48;6.20;;;3.60;;
7316;SDS011;3699;51.462;6.696;2023-04-26T08:18:14;5.23;;;3.83;;
7316;SDS011;3699;51.462;6.696;2023-04-26T08:20:41;6.60;;;3.37;;
7316;SDS011;3699;51.462;6.696;2023-04-26T08:23:08;8.67;;;3.77;;
7316;SDS011;3699;51.462;6.696;2023-04-26T08:25:35;6.23;;;3.20;;
7316;SDS011;3699;51.462;6.696;2023-04-26T08:28:02;5.87;;;3.53;;
7316;SDS011;3699;51.462;6.696;2023-04-26T08:30:29;5.43;;;3.37;;
7316;SDS011;3699;51.462;6.696;2023-04-26T08:32:57;9.07;;;3.73;;
7316;SDS011;3699;51.462;6.696;2023-04-26T08:35:24;3.20;;;2.60;;
7316;SDS011;3699;51.462;6.696;2023-04-26T08:37:50;9.17;;;2.90;;
7316;SDS011;3699;51.462;6.696;2023-04-26T08:40:21;7.97;;;2.63;;
7316;SDS011;3699;51.462;6.696;2023-04-26T08:42:49;3.50;;;2.30;;
7316;SDS011;3699;51.462;6.696;2023-04-26T08:45:17;2.73;;;2.47;;
7316;SDS011;3699;51.462;6.696;2023-04-26T08:47:46;5.40;;;2.40;;
7316;SDS011;3699;51.462;6.696;2023-04-26T08:50:19;7.67;;;2.93;;
7316;SDS011;3699;51.462;6.696;2023-04-26T08:52:46;4.53;;;3.03;;
7316;SDS011;3699;51.462;6.696;2023-04-26T08:55:15;4.97;;;2.90;;
7316;SDS011;3699;51.462;6.696;2023-04-26T08:57:42;5.40;;;3.07;;
7316;SDS011;3699;51.462;6.696;2023-04-26T09:00:10;5.07;;;2.73;;
7316;SDS011;3699;51.462;6.696;2023-04-26T09:02:38;7.40;;;3.27;;
7316;SDS011;3699;51.462;6.696;2023-04-26T09:05:07;4.63;;;3.43;;
7316;SDS011;3699;51.462;6.696;2023-04-26T09:07:38;7.87;;;3.60;;
7316;SDS011;3699;51.462;6.696;2023-04-26T09:10:07;5.93;;;3.60;;
7316;SDS011;3699;51.462;6.696;2023-04-26T09:12:35;4.87;;;2.50;;
7316;SDS011;3699;51.462;6.696;2023-04-26T09:15:02;5.77;;;2.60;;
7316;SDS011;3699;51.462;6.696;2023-04-26T09:17:31;6.70;;;2.67;;
7316;SDS011;3699;51.462;6.696;2023-04-26T09:20:00;6.43;;;3.23;;
7316;SDS011;3699;51.462;6.696;2023-04-26T09:22:43;4.77;;;2.93;;
7316;SDS011;3699;51.462;6.696;2023-04-26T09:25:11;4.53;;;2.03;;
7316;SDS011;3699;51.462;6.696;2023-04-26T09:27:38;4.23;;;2.20;;
7316;SDS011;3699;51.462;6.696;2023-04-26T09:30:08;3.43;;;2.20;;
7316;SDS011;3699;51.462;6.696;2023-04-26T09:32:42;9.83;;;3.07;;
7316;SDS011;3699;51.462;6.696;2023-04-26T09:35:29;3.13;;;2.30;;
7316;SDS011;3699;51.462;6.696;2023-04-26T09:37:58;3.43;;;2.40;;
7316;SDS011;3699;51.462;6.696;2023-04-26T09:40:28;4.70;;;2.20;;
7316;SDS011;3699;51.462;6.696;2023-04-26T09:42:59;3.70;;;2.50;;
7316;SDS011;3699;51.462;6.696;2023-04-26T09:45:28;6.87;;;2.40;;
7316;SDS011;3699;51.462;6.696;2023-04-26T09:48:09;8.83;;;2.70;;
7316;SDS011;3699;51.462;6.696;2023-04-26T09:50:38;6.57;;;2.70;;
7316;SDS011;3699;51.462;6.696;2023-04-26T09:53:06;3.40;;;2.97;;
7316;SDS011;3699;51.462;6.696;2023-04-26T09:55:34;3.43;;;2.23;;
7316;SDS011;3699;51.462;6.696;2023-04-26T09:58:06;5.47;;;3.10;;
7316;SDS011;3699;51.462;6.696;2023-04-26T10:00:34;7.10;;;2.70;;
7316;SDS011;3699;51.462;6.696;2023-04-26T10:03:04;6.67;;;2.80;;
7316;SDS011;3699;51.462;6.696;2023-04-26T10:05:34;4.70;;;2.40;;
7316;SDS011;3699;51.462;6.696;2023-04-26T10:08:01;4.50;;;2.70;;
7316;SDS011;3699;51.462;6.696;2023-04-26T10:10:30;5.03;;;3.10;;
7316;SDS011;3699;51.462;6.696;2023-04-26T10:12:57;3.60;;;2.67;;
7316;SDS011;3699;51.462;6.696;2023-04-26T10:15:24;5.47;;;2.60;;
7316;SDS011;3699;51.462;6.696;2023-04-26T10:17:51;3.43;;;2.13;;
7316;SDS011;3699;51.462;6.696;2023-04-26T10:20:18;3.53;;;2.57;;
7316;SDS011;3699;51.462;6.696;2023-04-26T10:22:49;5.43;;;2.90;;
7316;SDS011;3699;51.462;6.696;2023-04-26T10:25:19;5.67;;;2.70;;
7316;SDS011;3699;51.462;6.696;2023-04-26T10:27:48;4.27;;;2.97;;
7316;SDS011;3699;51.462;6.696;2023-04-26T10:30:16;6.23;;;3.27;;
7316;SDS011;3699;51.462;6.696;2023-04-26T10:35:37;4.30;;;2.77;;
7316;SDS011;3699;51.462;6.696;2023-04-26T10:38:25;7.97;;;2.80;;
7316;SDS011;3699;51.462;6.696;2023-04-26T10:40:52;8.43;;;2.97;;
7316;SDS011;3699;51.462;6.696;2023-04-26T10:43:30;5.03;;;2.83;;
7316;SDS011;3699;51.462;6.696;2023-04-26T10:45:56;6.13;;;3.53;;
7316;SDS011;3699;51.462;6.696;2023-04-26T10:49:13;7.80;;;2.90;;
7316;SDS011;3699;51.462;6.696;2023-04-26T10:51:43;6.13;;;3.03;;
7316;SDS011;3699;51.462;6.696;2023-04-26T10:54:46;5.97;;;3.07;;
7316;SDS011;3699;51.462;6.696;2023-04-26T10:57:18;6.87;;;3.40;;
7316;SDS011;3699;51.462;6.696;2023-04-26T11:02:57;4.50;;;3.47;;
7316;SDS011;3699;51.462;6.696;2023-04-26T11:05:40;4.87;;;3.00;;
7316;SDS011;3699;51.462;6.696;2023-04-26T11:08:16;9.60;;;3.50;;
7316;SDS011;3699;51.462;6.696;2023-04-26T11:10:45;4.17;;;2.80;;
7316;SDS011;3699;51.462;6.696;2023-04-26T11:13:16;8.57;;;3.53;;
7316;SDS011;3699;51.462;6.696;2023-04-26T11:15:44;6.77;;;3.17;;
7316;SDS011;3699;51.462;6.696;2023-04-26T11:18:13;6.77;;;2.90;;
7316;SDS011;3699;51.462;6.696;2023-04-26T11:20:44;7.17;;;3.50;;
7316;SDS011;3699;51.462;6.696;2023-04-26T11:23:11;7.27;;;3.67;;
7316;SDS011;3699;51.462;6.696;2023-04-26T11:25:38;4.33;;;2.97;;
7316;SDS011;3699;51.462;6.696;2023-04-26T11:28:05;7.27;;;3.20;;
7316;SDS011;3699;51.462;6.696;2023-04-26T11:30:32;3.13;;;2.80;;
7316;SDS011;3699;51.462;6.696;2023-04-26T11:32:59;6.83;;;3.00;;
7316;SDS011;3699;51.462;6.696;2023-04-26T11:35:29;5.83;;;3.80;;
7316;SDS011;3699;51.462;6.696;2023-04-26T11:38:02;5.23;;;3.07;;
7316;SDS011;3699;51.462;6.696;2023-04-26T11:40:30;7.47;;;3.50;;
7316;SDS011;3699;51.462;6.696;2023-04-26T11:43:00;10.40;;;4.97;;
7316;SDS011;3699;51.462;6.696;2023-04-26T11:45:30;6.00;;;3.07;;
7316;SDS011;3699;51.462;6.696;2023-04-26T11:47:57;3.50;;;3.20;;
7316;SDS011;3699;51.462;6.696;2023-04-26T11:50:25;5.60;;;2.93;;
7316;SDS011;3699;51.462;6.696;2023-04-26T11:52:55;8.67;;;3.70;;
7316;SDS011;3699;51.462;6.696;2023-04-26T11:55:26;8.03;;;3.00;;
7316;SDS011;3699;51.462;6.696;2023-04-26T11:57:54;4.07;;;2.87;;
7316;SDS011;3699;51.462;6.696;2023-04-26T12:00:22;6.67;;;2.70;;
7316;SDS011;3699;51.462;6.696;2023-04-26T12:02:50;2.83;;;2.63;;
7316;SDS011;3699;51.462;6.696;2023-04-26T12:05:20;4.33;;;2.97;;
7316;SDS011;3699;51.462;6.696;2023-04-26T12:07:48;5.67;;;3.23;;
7316;SDS011;3699;51.462;6.696;2023-04-26T12:10:18;5.93;;;3.00;;
7316;SDS011;3699;51.462;6.696;2023-04-26T12:12:49;4.20;;;3.17;;
7316;SDS011;3699;51.462;6.696;2023-04-26T12:15:16;6.73;;;3.27;;
7316;SDS011;3699;51.462;6.696;2023-04-26T12:17:51;5.53;;;3.37;;
7316;SDS011;3699;51.462;6.696;2023-04-26T12:20:31;5.07;;;3.13;;
7316;SDS011;3699;51.462;6.696;2023-04-26T12:23:00;4.97;;;3.13;;
7316;SDS011;3699;51.462;6.696;2023-04-26T12:25:29;4.17;;;3.30;;
7316;SDS011;3699;51.462;6.696;2023-04-26T12:27:57;4.93;;;3.30;;
7316;SDS011;3699;51.462;6.696;2023-04-26T12:30:24;4.97;;;3.20;;
7316;SDS011;3699;51.462;6.696;2023-04-26T12:32:52;6.70;;;3.50;;
7316;SDS011;3699;51.462;6.696;2023-04-26T12:35:19;4.00;;;3.00;;
7316;SDS011;3699;51.462;6.696;2023-04-26T12:37:46;5.40;;;3.33;;
7316;SDS011;3699;51.462;6.696;2023-04-26T12:40:13;7.30;;;3.63;;
7316;SDS011;3699;51.462;6.696;2023-04-26T12:42:45;5.20;;;3.50;;
7316;SDS011;3699;51.462;6.696;2023-04-26T12:45:13;6.17;;;4.37;;
7316;SDS011;3699;51.462;6.696;2023-04-26T12:47:40;5.17;;;3.13;;
7316;SDS011;3699;51.462;6.696;2023-04-26T12:50:07;8.67;;;4.00;;
7316;SDS011;3699;51.462;6.696;2023-04-26T12:52:36;5.70;;;3.53;;
7316;SDS011;3699;51.462;6.696;2023-04-26T12:55:02;6.87;;;3.93;;
7316;SDS011;3699;51.462;6.696;2023-04-26T12:57:30;6.23;;;3.70;;
7316;SDS011;3699;51.462;6.696;2023-04-26T12:59:58;7.07;;;3.47;;
7316;SDS011;3699;51.462;6.696;2023-04-26T13:02:25;6.73;;;3.37;;
7316;SDS011;3699;51.462;6.696;2023-04-26T13:04:51;8.00;;;4.07;;
7316;SDS011;3699;51.462;6.696;2023-04-26T13:07:18;5.53;;;3.30;;
7316;SDS011;3699;51.462;6.696;2023-04-26T13:09:45;10.07;;;5.00;;
7316;SDS011;3699;51.462;6.696;2023-04-26T13:12:13;6.03;;;3.70;;
7316;SDS011;3699;51.462;6.696;2023-04-26T13:14:40;6.87;;;3.90;;
7316;SDS011;3699;51.462;6.696;2023-04-26T13:17:08;7.37;;;3.43;;
7316;SDS011;3699;51.462;6.696;2023-04-26T13:19:35;6.67;;;3.70;;
7316;SDS011;3699;51.462;6.696;2023-04-26T13:22:02;5.60;;;3.60;;
7316;SDS011;3699;51.462;6.696;2023-04-26T13:24:31;9.10;;;4.67;;
7316;SDS011;3699;51.462;6.696;2023-04-26T13:26:58;6.67;;;3.37;;
7316;SDS011;3699;51.462;6.696;2023-04-26T13:29:25;4.77;;;3.23;;
7316;SDS011;3699;51.462;6.696;2023-04-26T13:31:52;7.17;;;3.60;;
7316;SDS011;3699;51.462;6.696;2023-04-26T13:34:20;5.90;;;3.77;;
7316;SDS011;3699;51.462;6.696;2023-04-26T13:36:47;8.07;;;3.33;;
7316;SDS011;3699;51.462;6.696;2023-04-26T13:39:14;5.93;;;3.93;;
7316;SDS011;3699;51.462;6.696;2023-04-26T13:41:41;6.07;;;3.20;;
7316;SDS011;3699;51.462;6.696;2023-04-26T13:44:08;5.57;;;3.77;;
7316;SDS011;3699;51.462;6.696;2023-04-26T13:46:35;6.30;;;3.53;;
7316;SDS011;3699;51.462;6.696;2023-04-26T13:49:01;4.87;;;3.70;;
7316;SDS011;3699;51.462;6.696;2023-04-26T13:51:30;6.57;;;3.40;;
7316;SDS011;3699;51.462;6.696;2023-04-26T13:53:58;6.63;;;3.60;;
7316;SDS011;3699;51.462;6.696;2023-04-26T13:56:25;5.47;;;3.70;;
7316;SDS011;3699;51.462;6.696;2023-04-26T13:58:53;4.83;;;3.73;;
7316;SDS011;3699;51.462;6.696;2023-04-26T14:01:21;9.23;;;4.50;;
7316;SDS011;3699;51.462;6.696;2023-04-26T14:03:48;6.63;;;3.53;;
7316;SDS011;3699;51.462;6.696;2023-04-26T14:06:15;4.20;;;3.60;;
7316;SDS011;3699;51.462;6.696;2023-04-26T14:08:43;6.60;;;3.83;;
7316;SDS011;3699;51.462;6.696;2023-04-26T14:11:10;8.20;;;4.03;;
7316;SDS011;3699;51.462;6.696;2023-04-26T14:13:38;7.50;;;3.57;;
7316;SDS011;3699;51.462;6.696;2023-04-26T14:16:06;7.83;;;3.50;;
7316;SDS011;3699;51.462;6.696;2023-04-26T14:18:34;6.17;;;3.20;;
7316;SDS011;3699;51.462;6.696;2023-04-26T14:21:01;4.90;;;4.20;;
7316;SDS011;3699;51.462;6.696;2023-04-26T14:23:28;6.27;;;4.40;;
7316;SDS011;3699;51.462;6.696;2023-04-26T14:25:56;5.77;;;3.97;;
7316;SDS011;3699;51.462;6.696;2023-04-26T14:28:23;8.13;;;5.00;;
7316;SDS011;3699;51.462;6.696;2023-04-26T14:30:50;8.17;;;3.93;;
7316;SDS011;3699;51.462;6.696;2023-04-26T14:33:17;8.93;;;3.40;;
7316;SDS011;3699;51.462;6.696;2023-04-26T14:35:44;4.83;;;3.50;;
7316;SDS011;3699;51.462;6.696;2023-04-26T14:38:10;10.90;;;4.90;;
7316;SDS011;3699;51.462;6.696;2023-04-26T14:40:37;6.57;;;4.00;;
7316;SDS011;3699;51.462;6.696;2023-04-26T14:43:06;6.30;;;3.50;;
7316;SDS011;3699;51.462;6.696;2023-04-26T14:45:32;6.57;;;3.63;;
7316;SDS011;3699;51.462;6.696;2023-04-26T14:47:59;7.53;;;3.93;;
7316;SDS011;3699;51.462;6.696;2023-04-26T14:50:26;6.63;;;4.40;;
7316;SDS011;3699;51.462;6.696;2023-04-26T14:52:53;5.83;;;3.43;;
7316;SDS011;3699;51.462;6.696;2023-04-26T14:55:20;10.37;;;3.70;;
7316;SDS011;3699;51.462;6.696;2023-04-26T14:57:47;6.03;;;3.80;;
7316;SDS011;3699;51.462;6.696;2023-04-26T15:00:16;3.97;;;3.40;;
7316;SDS011;3699;51.462;6.696;2023-04-26T15:02:43;6.50;;;3.77;;
7316;SDS011;3699;51.462;6.696;2023-04-26T15:05:10;8.77;;;3.90;;
7316;SDS011;3699;51.462;6.696;2023-04-26T15:07:38;4.73;;;3.73;;
7316;SDS011;3699;51.462;6.696;2023-04-26T15:10:05;5.07;;;3.37;;
7316;SDS011;3699;51.462;6.696;2023-04-26T15:12:33;5.00;;;4.13;;
7316;SDS011;3699;51.462;6.696;2023-04-26T15:15:00;3.97;;;3.53;;
7316;SDS011;3699;51.462;6.696;2023-04-26T15:17:31;6.87;;;3.70;;
7316;SDS011;3699;51.462;6.696;2023-04-26T15:19:59;4.87;;;3.50;;